Time;durP1;ratioP1;P1;durP2;ratioP2;P2;SDS_P1;SDS_P2;PMS_P1;PMS_P2;Temp;Humidity;BMP_temperature;BMP_pressure;BME280_temperature;BME280_humidity;BME280_pressure;Samples;Min_cycle;Max_cycle;Signal;HPM_P1;HPM_P2
2023/08/01 00:02:01;;;;;;;7.57;6.63;;;26.20;86.90;;;;;;4921201;29;20052;-80
2023/08/01 00:04:26;;;;;;;9.97;6.80;;;26.20;86.90;;;;;;4921934;29;20036;-80
2023/08/01 00:06:52;;;;;;;8.40;6.90;;;26.20;87.10;;;;;;4920472;29;20087;-80
2023/08/01 00:09:18;;;;;;;8.13;6.53;;;26.10;87.20;;;;;;4921379;29;20024;-80
2023/08/01 00:11:44;;;;;;;8.03;7.17;;;26.10;87.60;;;;;;4921790;29;20032;-81
2023/08/01 00:14:09;;;;;;;7.53;6.83;;;26.10;87.30;;;;;;4921582;29;20121;-81
2023/08/01 00:16:36;;;;;;;9.63;7.57;;;26.10;87.40;;;;;;4922630;29;20402;-80
2023/08/01 00:19:02;;;;;;;9.48;7.13;;;26.10;87.90;;;;;;4922675;29;20032;-80
2023/08/01 00:21:27;;;;;;;8.07;6.80;;;26.10;87.80;;;;;;4928119;29;20047;-81
2023/08/01 00:23:53;;;;;;;10.47;7.33;;;26.10;87.90;;;;;;4938394;29;20059;-80
2023/08/01 00:26:19;;;;;;;10.93;8.17;;;26.00;88.00;;;;;;4921848;29;20016;-80
2023/08/01 00:28:45;;;;;;;8.03;7.23;;;26.00;88.10;;;;;;4937100;29;20036;-79
2023/08/01 00:31:11;;;;;;;9.23;7.17;;;26.00;88.70;;;;;;4937611;29;20036;-79
2023/08/01 00:33:37;;;;;;;8.87;7.87;;;26.00;88.60;;;;;;4937996;29;20036;-80
2023/08/01 00:36:03;;;;;;;9.15;7.78;;;25.90;88.60;;;;;;4938063;29;20025;-80
2023/08/01 00:38:29;;;;;;;12.25;7.68;;;25.90;88.70;;;;;;4937965;29;20021;-80
2023/08/01 00:40:55;;;;;;;9.13;8.23;;;25.90;89.00;;;;;;4938321;29;20067;-80
2023/08/01 00:43:21;;;;;;;7.83;7.03;;;25.80;89.20;;;;;;4938904;29;20020;-80
2023/08/01 00:45:47;;;;;;;9.03;8.07;;;25.70;89.40;;;;;;4953588;29;20020;-80
2023/08/01 00:48:13;;;;;;;10.20;8.25;;;25.70;89.50;;;;;;4953799;29;20087;-79
2023/08/01 00:50:39;;;;;;;13.83;8.43;;;25.70;89.50;;;;;;4938453;29;20036;-80
2023/08/01 00:53:05;;;;;;;9.68;8.05;;;25.70;89.50;;;;;;4953158;29;20024;-80
2023/08/01 00:55:33;;;;;;;9.97;7.90;;;25.70;89.70;;;;;;4937720;29;20052;-80
2023/08/01 00:57:59;;;;;;;10.60;8.38;;;25.70;89.50;;;;;;4937573;29;20043;-80
2023/08/01 01:00:26;;;;;;;10.55;9.55;;;25.70;90.00;;;;;;4952736;29;20119;-79
2023/08/01 01:02:52;;;;;;;11.80;9.95;;;25.70;90.00;;;;;;4936322;29;20027;-80
2023/08/01 01:05:21;;;;;;;14.90;9.75;;;25.60;90.40;;;;;;4937334;29;20037;-79
2023/08/01 01:07:48;;;;;;;12.10;9.20;;;25.60;90.40;;;;;;4937861;29;20027;-80
2023/08/01 01:10:14;;;;;;;12.30;9.70;;;25.50;90.40;;;;;;4937470;29;20036;-80
2023/08/01 01:12:40;;;;;;;11.23;9.90;;;25.40;90.60;;;;;;4937454;29;20056;-79
2023/08/01 01:15:06;;;;;;;11.00;10.00;;;25.40;90.70;;;;;;4937433;29;20086;-79
2023/08/01 01:17:32;;;;;;;12.70;10.93;;;25.40;90.90;;;;;;4921825;29;20032;-80
2023/08/01 01:19:58;;;;;;;13.30;11.93;;;25.30;91.10;;;;;;4938040;29;20095;-80
2023/08/01 01:22:25;;;;;;;11.85;10.65;;;25.20;91.30;;;;;;4934287;29;20044;-79
2023/08/01 01:24:53;;;;;;;11.98;10.98;;;25.20;91.50;;;;;;4933559;29;20024;-79
2023/08/01 01:27:19;;;;;;;11.90;10.85;;;25.20;91.70;;;;;;4921473;29;20040;-80
2023/08/01 01:29:47;;;;;;;12.87;11.77;;;25.10;91.70;;;;;;4937518;29;20016;-80
2023/08/01 01:32:13;;;;;;;12.13;10.95;;;25.20;91.70;;;;;;4937544;29;20284;-80
2023/08/01 01:34:39;;;;;;;15.40;11.63;;;25.20;91.50;;;;;;4938793;29;20039;-80
2023/08/01 01:37:05;;;;;;;12.13;11.03;;;25.20;91.60;;;;;;4941655;29;20009;-80
2023/08/01 01:39:32;;;;;;;14.10;11.38;;;25.10;91.60;;;;;;4940829;29;20051;-80
2023/08/01 01:41:58;;;;;;;14.40;12.77;;;25.10;91.70;;;;;;4941147;29;20068;-80
2023/08/01 01:44:24;;;;;;;14.13;12.50;;;25.10;91.80;;;;;;4941269;29;20028;-80
2023/08/01 01:46:49;;;;;;;13.40;12.20;;;25.10;92.00;;;;;;4941813;29;20024;-80
2023/08/01 01:49:15;;;;;;;14.10;12.80;;;25.10;92.00;;;;;;4941594;29;20055;-80
2023/08/01 01:51:41;;;;;;;15.07;13.60;;;25.10;92.10;;;;;;4940243;29;20020;-80
2023/08/01 01:54:07;;;;;;;15.17;13.73;;;25.10;92.20;;;;;;4939598;29;20032;-80
2023/08/01 01:56:33;;;;;;;15.13;13.70;;;25.10;92.20;;;;;;4940632;29;20043;-80
2023/08/01 01:58:59;;;;;;;15.82;13.27;;;25.00;92.30;;;;;;4956169;29;20036;-80
2023/08/01 02:01:25;;;;;;;15.80;14.00;;;25.00;92.40;;;;;;4939984;29;20086;-80
2023/08/01 02:03:51;;;;;;;15.87;14.27;;;24.90;92.40;;;;;;4936035;29;20045;-80
2023/08/01 02:06:16;;;;;;;15.67;14.27;;;24.90;92.80;;;;;;4952233;29;20039;-80
2023/08/01 02:08:43;;;;;;;15.32;13.82;;;24.90;92.60;;;;;;4937959;29;20008;-80
2023/08/01 02:11:09;;;;;;;16.00;14.50;;;24.90;92.40;;;;;;4937552;29;20032;-80
2023/08/01 02:13:35;;;;;;;16.67;13.80;;;24.90;92.50;;;;;;4937742;29;20032;-80
2023/08/01 02:16:01;;;;;;;16.23;14.83;;;24.90;92.60;;;;;;4936071;29;20028;-80
2023/08/01 02:18:26;;;;;;;16.07;14.37;;;24.90;92.80;;;;;;4951253;29;20028;-80
2023/08/01 02:20:52;;;;;;;16.67;14.80;;;24.90;92.80;;;;;;4938552;29;20104;-80
2023/08/01 02:23:19;;;;;;;15.95;14.35;;;24.90;92.70;;;;;;4934791;29;20237;-80
2023/08/01 02:25:45;;;;;;;16.83;15.10;;;24.90;92.90;;;;;;4918160;29;20514;-80
2023/08/01 02:28:12;;;;;;;14.83;13.50;;;24.90;92.80;;;;;;4916670;29;20508;-80
2023/08/01 02:30:38;;;;;;;14.80;13.38;;;24.90;92.70;;;;;;4932239;29;20479;-80
2023/08/01 02:33:04;;;;;;;16.42;14.82;;;25.00;92.70;;;;;;4917347;29;20150;-81
2023/08/01 02:35:30;;;;;;;15.47;14.03;;;24.90;92.70;;;;;;4916633;29;20029;-80
2023/08/01 02:37:56;;;;;;;17.45;15.73;;;24.90;92.80;;;;;;4917310;29;20035;-80
2023/08/01 02:40:22;;;;;;;16.13;14.60;;;24.90;92.90;;;;;;4900643;29;20032;-80
2023/08/01 02:42:48;;;;;;;16.65;14.98;;;24.90;93.00;;;;;;4916292;29;20411;-80
2023/08/01 02:45:14;;;;;;;16.58;14.82;;;24.90;93.10;;;;;;4916078;29;20499;-80
2023/08/01 02:47:40;;;;;;;17.77;16.03;;;24.80;93.20;;;;;;4899501;29;20038;-80
2023/08/01 02:50:06;;;;;;;17.97;16.17;;;24.80;93.20;;;;;;4917234;29;20459;-80
2023/08/01 02:52:32;;;;;;;16.38;14.98;;;24.70;93.20;;;;;;4917124;29;20518;-80
2023/08/01 02:54:58;;;;;;;17.50;15.83;;;24.70;93.40;;;;;;4916338;29;20024;-80
2023/08/01 02:57:24;;;;;;;19.23;16.80;;;24.70;93.50;;;;;;4931993;29;20032;-80
2023/08/01 02:59:50;;;;;;;18.50;16.70;;;24.70;93.60;;;;;;4915778;29;20039;-80
2023/08/01 03:02:16;;;;;;;18.70;16.77;;;24.70;93.60;;;;;;4899912;29;20107;-80
2023/08/01 03:04:42;;;;;;;20.13;18.30;;;24.60;93.80;;;;;;4916554;29;20484;-80
2023/08/01 03:07:07;;;;;;;20.00;18.20;;;24.60;93.90;;;;;;4922391;29;20028;-80
2023/08/01 03:09:33;;;;;;;18.97;17.13;;;24.60;94.00;;;;;;4916657;29;20573;-80
2023/08/01 03:11:59;;;;;;;19.17;17.40;;;24.60;94.10;;;;;;4915678;29;20511;-81
2023/08/01 03:14:25;;;;;;;19.73;17.63;;;24.50;94.00;;;;;;4896883;29;20103;-81
2023/08/01 03:16:51;;;;;;;20.80;18.10;;;24.50;93.90;;;;;;4930491;29;20025;-81
2023/08/01 03:19:16;;;;;;;18.80;17.03;;;24.50;94.00;;;;;;4928868;29;20126;-80
2023/08/01 03:21:42;;;;;;;20.33;18.27;;;24.50;93.90;;;;;;4918742;29;20032;-80
2023/08/01 03:24:08;;;;;;;19.93;17.80;;;24.50;93.90;;;;;;4899693;29;20495;-80
2023/08/01 03:26:38;;;;;;;19.10;17.30;;;24.50;93.70;;;;;;4920311;29;20032;-80
2023/08/01 03:29:05;;;;;;;19.33;17.02;;;24.50;93.80;;;;;;4916447;29;20036;-80
2023/08/01 03:31:32;;;;;;;20.00;18.15;;;24.50;93.80;;;;;;4921199;29;20127;-81
2023/08/01 03:34:00;;;;;;;19.23;17.13;;;24.50;93.90;;;;;;4915090;29;20180;-81
2023/08/01 03:36:26;;;;;;;22.75;18.08;;;24.50;93.90;;;;;;4914300;29;20151;-81
2023/08/01 03:38:52;;;;;;;21.47;17.33;;;24.50;94.10;;;;;;4927499;29;20111;-81
2023/08/01 03:41:18;;;;;;;20.10;18.20;;;24.30;94.20;;;;;;4925850;29;20402;-80
2023/08/01 03:43:44;;;;;;;18.83;17.13;;;24.30;94.40;;;;;;4908463;29;20031;-81
2023/08/01 03:46:10;;;;;;;20.40;18.33;;;24.30;94.50;;;;;;4929649;29;20557;-81
2023/08/01 03:48:35;;;;;;;22.63;17.90;;;24.20;94.60;;;;;;4916150;29;20047;-81
2023/08/01 03:51:03;;;;;;;20.17;18.33;;;24.20;94.80;;;;;;4900177;29;20059;-80
2023/08/01 03:53:29;;;;;;;22.13;18.73;;;24.10;94.80;;;;;;4924547;29;20038;-80
2023/08/01 03:55:56;;;;;;;19.92;17.80;;;24.20;94.90;;;;;;4930435;29;20368;-80
2023/08/01 03:58:22;;;;;;;17.85;16.05;;;24.20;95.10;;;;;;4915768;29;20107;-80
2023/08/01 04:00:47;;;;;;;19.30;17.40;;;24.20;94.70;;;;;;4911805;29;20123;-81
2023/08/01 04:03:13;;;;;;;20.37;18.27;;;24.20;94.60;;;;;;4921552;29;20407;-82
2023/08/01 04:05:39;;;;;;;20.53;18.50;;;24.10;94.70;;;;;;4916661;29;20575;-81
2023/08/01 04:08:05;;;;;;;20.03;17.90;;;24.10;94.50;;;;;;4915165;29;20388;-81
2023/08/01 04:10:31;;;;;;;18.83;16.87;;;24.20;94.60;;;;;;4916169;29;20032;-81
2023/08/01 04:12:56;;;;;;;19.97;17.97;;;24.20;94.30;;;;;;4912175;29;20036;-80
2023/08/01 05:39:11;;;;;;;17.02;15.32;;;24.60;93.80;;;;;;5064622;23;20043;-85
2023/08/01 05:41:37;;;;;;;20.00;15.27;;;24.70;93.50;;;;;;4961343;28;20027;-85
2023/08/01 05:44:04;;;;;;;17.23;15.40;;;24.70;93.40;;;;;;4960768;28;20179;-83
2023/08/01 05:46:30;;;;;;;17.25;14.27;;;24.80;93.20;;;;;;4943860;29;20118;-83
2023/08/01 05:48:55;;;;;;;16.93;14.93;;;24.80;93.20;;;;;;4958144;29;20442;-82
2023/08/01 05:51:21;;;;;;;19.63;14.60;;;24.90;93.20;;;;;;4976891;28;20027;-83
2023/08/01 05:53:47;;;;;;;17.73;14.93;;;24.90;93.10;;;;;;4977031;28;20050;-83
2023/08/01 05:56:14;;;;;;;16.17;14.47;;;25.00;93.00;;;;;;4975436;28;20031;-83
2023/08/01 05:58:43;;;;;;;15.82;13.48;;;25.10;92.90;;;;;;4952578;23;20040;-80
2023/08/01 06:01:11;;;;;;;17.43;14.27;;;25.20;92.60;;;;;;4897653;29;20044;-83
2023/08/01 06:03:38;;;;;;;15.93;14.38;;;25.30;92.20;;;;;;4918159;29;20032;-83
2023/08/01 06:06:04;;;;;;;15.13;13.25;;;25.40;92.10;;;;;;4909283;29;20084;-83
2023/08/01 06:08:30;;;;;;;15.05;13.57;;;25.50;91.70;;;;;;4912629;29;20487;-84
2023/08/01 06:10:56;;;;;;;18.13;13.75;;;25.60;91.50;;;;;;4914835;29;20500;-83
2023/08/01 06:13:22;;;;;;;14.23;12.93;;;25.60;91.40;;;;;;4978799;23;20055;-82
2023/08/01 06:15:48;;;;;;;16.00;13.20;;;25.70;91.30;;;;;;4939011;29;20032;-83
2023/08/01 06:18:14;;;;;;;15.13;13.63;;;25.60;91.20;;;;;;4941974;29;20030;-85
2023/08/01 06:20:40;;;;;;;15.10;13.60;;;25.60;91.50;;;;;;4944881;29;20043;-83
2023/08/01 06:23:05;;;;;;;16.15;14.15;;;25.50;91.80;;;;;;4943451;29;20076;-83
2023/08/01 06:25:31;;;;;;;14.77;13.37;;;25.50;91.70;;;;;;4947895;29;20036;-85
2023/08/01 06:27:57;;;;;;;15.03;13.50;;;25.50;91.50;;;;;;4939310;29;20062;-84
2023/08/01 06:30:23;;;;;;;16.87;13.97;;;25.60;91.40;;;;;;4943826;29;20580;-85
2023/08/01 06:32:49;;;;;;;18.20;13.03;;;25.70;91.50;;;;;;4926161;29;20040;-84
2023/08/01 06:35:15;;;;;;;16.03;14.43;;;25.70;91.10;;;;;;4949019;29;20102;-84
2023/08/01 06:37:40;;;;;;;16.60;13.43;;;25.80;91.00;;;;;;4962662;29;20127;-85
2023/08/01 06:40:07;;;;;;;14.40;12.97;;;26.00;91.00;;;;;;4949218;29;20034;-85
2023/08/01 06:42:33;;;;;;;16.75;12.80;;;26.10;90.60;;;;;;4957573;29;20040;-86
2023/08/01 06:44:59;;;;;;;16.13;11.67;;;26.30;90.10;;;;;;4928342;29;20613;-85
2023/08/01 06:47:25;;;;;;;13.77;12.27;;;26.30;88.40;;;;;;4944076;29;20095;-85
2023/08/01 06:49:51;;;;;;;12.83;11.50;;;26.40;87.60;;;;;;4943868;29;20371;-87
2023/08/01 06:52:16;;;;;;;13.83;12.33;;;26.50;87.90;;;;;;4925741;29;20031;-85
2023/08/01 06:54:42;;;;;;;13.97;11.67;;;26.50;87.90;;;;;;4961305;29;20032;-83
2023/08/01 06:57:08;;;;;;;16.50;12.03;;;26.60;87.30;;;;;;4947712;29;20065;-84
2023/08/01 06:59:34;;;;;;;13.23;11.77;;;26.60;86.90;;;;;;4941693;29;20031;-84
2023/08/01 07:02:00;;;;;;;16.70;12.23;;;26.60;86.50;;;;;;4938650;29;20056;-86
2023/08/01 07:04:26;;;;;;;12.52;11.43;;;26.60;86.50;;;;;;4943473;29;20490;-85
2023/08/01 07:06:52;;;;;;;15.20;11.80;;;26.60;86.50;;;;;;4946103;29;20034;-85
2023/08/01 07:09:18;;;;;;;16.33;12.17;;;26.60;86.30;;;;;;4939761;29;20443;-86
2023/08/01 07:11:43;;;;;;;14.13;11.77;;;26.60;86.70;;;;;;4944536;29;20063;-83
2023/08/01 07:14:09;;;;;;;12.03;10.63;;;26.70;86.80;;;;;;4921975;29;20094;-82
2023/08/01 07:16:35;;;;;;;12.53;10.83;;;26.70;86.30;;;;;;4938872;29;20040;-79
2023/08/01 07:19:01;;;;;;;12.83;11.23;;;26.80;86.20;;;;;;4925979;29;20058;-79
2023/08/01 07:21:28;;;;;;;16.73;10.07;;;26.80;85.90;;;;;;4923330;29;20483;-79
2023/08/01 07:23:54;;;;;;;11.90;9.23;;;26.90;84.80;;;;;;4924391;29;20264;-79
2023/08/01 07:26:20;;;;;;;13.53;9.87;;;26.90;84.60;;;;;;4942493;29;20058;-79
2023/08/01 07:28:46;;;;;;;15.03;10.73;;;26.80;83.30;;;;;;4945747;29;20027;-79
2023/08/01 07:31:12;;;;;;;11.43;9.70;;;26.80;83.20;;;;;;4958974;29;20031;-79
2023/08/01 07:33:38;;;;;;;11.07;8.97;;;26.70;83.40;;;;;;4942791;29;20032;-81
2023/08/01 07:36:04;;;;;;;10.07;8.97;;;26.80;83.50;;;;;;4943602;29;20027;-81
2023/08/01 07:38:31;;;;;;;12.38;9.00;;;26.90;82.10;;;;;;4943758;29;20035;-80
2023/08/01 07:41:02;;;;;;;12.13;9.70;;;26.90;81.10;;;;;;4945839;29;20118;-80
2023/08/01 07:43:27;;;;;;;13.30;9.57;;;27.00;80.90;;;;;;4945864;29;20031;-81
2023/08/01 07:45:57;;;;;;;12.10;10.10;;;26.90;80.00;;;;;;4945648;29;20031;-80
2023/08/01 07:48:23;;;;;;;9.05;6.13;;;26.90;81.00;;;;;;4959152;29;20032;-81
2023/08/01 07:50:49;;;;;;;14.80;6.07;;;27.00;77.50;;;;;;4945531;29;20023;-79
2023/08/01 07:53:15;;;;;;;13.57;6.00;;;27.00;74.60;;;;;;4948323;29;20066;-78
2023/08/01 07:55:41;;;;;;;7.13;5.10;;;27.00;71.90;;;;;;4947436;29;20038;-79
2023/08/01 07:58:07;;;;;;;10.00;6.18;;;27.00;71.70;;;;;;4949534;29;20118;-79
2023/08/01 08:00:35;;;;;;;9.05;6.55;;;26.90;70.80;;;;;;4947078;29;20487;-79
2023/08/01 08:03:01;;;;;;;7.47;6.70;;;27.00;71.40;;;;;;4962111;29;20035;-79
2023/08/01 08:05:26;;;;;;;12.37;5.97;;;27.00;70.90;;;;;;4945593;29;20031;-80
2023/08/01 08:07:52;;;;;;;7.27;6.00;;;27.00;68.90;;;;;;4946536;29;20032;-80
2023/08/01 08:10:18;;;;;;;8.37;7.57;;;27.10;70.00;;;;;;4961828;29;20027;-80
2023/08/01 08:12:44;;;;;;;8.27;6.37;;;27.20;71.70;;;;;;4960732;29;20091;-79
2023/08/01 08:15:10;;;;;;;9.83;6.20;;;27.30;70.30;;;;;;4947392;29;20476;-79
2023/08/01 08:17:36;;;;;;;8.27;5.78;;;27.30;70.50;;;;;;4946383;29;20059;-80
2023/08/01 08:20:03;;;;;;;12.30;7.00;;;27.30;68.80;;;;;;4945952;29;20028;-79
2023/08/01 08:22:29;;;;;;;10.77;5.65;;;27.30;68.90;;;;;;4948450;29;20055;-79
2023/08/01 08:24:55;;;;;;;7.70;5.50;;;27.40;69.00;;;;;;4947069;29;20058;-80
2023/08/01 08:27:20;;;;;;;11.30;5.40;;;27.50;68.70;;;;;;4945188;29;20134;-78
2023/08/01 08:29:46;;;;;;;10.77;6.37;;;27.60;68.00;;;;;;4937877;29;20271;-78
2023/08/01 08:32:12;;;;;;;5.40;4.90;;;27.60;65.20;;;;;;4941220;29;20502;-79
2023/08/01 08:34:39;;;;;;;8.77;5.37;;;27.60;65.80;;;;;;4940431;29;20482;-79
2023/08/01 08:37:05;;;;;;;8.63;5.50;;;27.70;64.50;;;;;;4942286;29;20291;-79
2023/08/01 08:39:31;;;;;;;8.43;7.53;;;27.80;64.10;;;;;;4938143;29;20379;-78
2023/08/01 08:41:59;;;;;;;11.63;6.90;;;27.80;63.80;;;;;;4939191;29;20031;-78
2023/08/01 08:44:25;;;;;;;18.05;9.45;;;27.70;63.40;;;;;;4937984;29;20115;-78
2023/08/01 08:46:52;;;;;;;11.40;9.10;;;27.70;64.30;;;;;;4939396;29;20071;-78
2023/08/01 08:49:20;;;;;;;9.63;8.60;;;27.60;65.00;;;;;;4939319;29;20303;-78
2023/08/01 08:51:47;;;;;;;11.77;8.73;;;27.60;66.40;;;;;;4939004;29;20585;-78
2023/08/01 08:54:14;;;;;;;11.23;8.02;;;27.60;67.60;;;;;;4939197;29;20054;-78
2023/08/01 08:56:40;;;;;;;12.00;10.65;;;27.60;67.10;;;;;;4939368;29;20028;-78
2023/08/01 08:59:09;;;;;;;14.82;11.68;;;27.70;68.10;;;;;;4939570;29;20020;-78
2023/08/01 09:01:36;;;;;;;16.17;13.45;;;27.90;69.40;;;;;;4940244;29;20039;-78
2023/08/01 09:04:02;;;;;;;;;;;28.00;68.70;;;;;;4938113;29;20035;-78
2023/08/01 09:06:31;;;;;;;15.85;14.20;;;27.90;68.80;;;;;;4937264;29;20289;-77
2023/08/01 09:09:18;;;;;;;20.35;15.85;;;27.90;70.00;;;;;;4937015;29;20030;-78
2023/08/01 09:11:50;;;;;;;18.20;15.55;;;28.00;71.20;;;;;;4937382;29;20043;-77
2023/08/01 09:14:17;;;;;;;17.95;16.13;;;28.00;72.40;;;;;;4936150;29;20043;-77
2023/08/01 09:16:44;;;;;;;;;;;28.00;72.20;;;;;;4939036;29;20043;-77
2023/08/01 09:19:12;;;;;;;17.70;15.85;;;28.10;73.20;;;;;;4937791;29;20378;-78
2023/08/01 09:21:39;;;;;;;20.10;16.55;;;28.10;72.90;;;;;;4936111;29;20043;-77
2023/08/01 09:24:13;;;;;;;20.67;17.67;;;28.20;73.00;;;;;;4937449;29;20031;-77
2023/08/01 09:26:40;;;;;;;20.00;16.48;;;28.30;72.00;;;;;;4953048;29;20043;-77
2023/08/01 09:29:06;;;;;;;19.25;16.83;;;28.30;72.70;;;;;;4937775;29;20526;-77
2023/08/01 09:31:33;;;;;;;;;;;28.30;71.70;;;;;;4953371;29;20036;-77
2023/08/01 09:34:00;;;;;;;15.80;13.40;;;28.40;72.30;;;;;;4938253;29;20350;-77
2023/08/01 09:36:26;;;;;;;18.33;15.38;;;28.40;70.40;;;;;;4938170;29;20111;-77
2023/08/01 09:38:58;;;;;;;17.75;14.38;;;28.20;69.30;;;;;;4936990;29;20028;-81
2023/08/01 09:41:24;;;;;;;18.90;16.02;;;28.30;71.50;;;;;;4939978;29;20495;-78
2023/08/01 09:43:50;;;;;;;23.13;15.93;;;28.30;71.00;;;;;;4939543;29;20036;-78
2023/08/01 09:46:16;;;;;;;21.53;16.50;;;28.40;70.90;;;;;;4941287;29;20048;-80
2023/08/01 09:48:43;;;;;;;16.87;15.17;;;28.50;70.30;;;;;;4939787;29;20370;-80
2023/08/01 09:51:12;;;;;;;16.50;14.77;;;28.50;71.60;;;;;;4956100;29;20107;-80
2023/08/01 09:53:54;;;;;;;19.10;15.30;;;28.70;70.40;;;;;;4941813;29;20046;-80
2023/08/01 09:56:29;;;;;;;16.33;13.35;;;28.90;69.10;;;;;;4960886;28;20031;-80
2023/08/01 09:58:56;;;;;;;13.13;11.38;;;28.90;69.10;;;;;;4946819;29;20036;-81
2023/08/01 10:01:24;;;;;;;16.73;11.93;;;29.10;66.50;;;;;;4945295;29;20028;-83
2023/08/01 10:03:52;;;;;;;13.27;11.27;;;29.20;66.20;;;;;;4958046;29;20036;-83
2023/08/01 10:06:21;;;;;;;16.40;12.43;;;29.20;66.30;;;;;;4943282;29;20038;-84
2023/08/01 10:08:49;;;;;;;21.92;13.85;;;29.40;66.50;;;;;;4943423;29;20035;-86
2023/08/01 10:11:17;;;;;;;17.00;12.18;;;29.60;65.70;;;;;;4942903;29;20035;-83
2023/08/01 10:13:44;;;;;;;14.60;11.73;;;29.60;65.60;;;;;;4942787;29;20039;-83
2023/08/01 10:16:10;;;;;;;18.48;12.68;;;29.50;65.70;;;;;;4941963;29;20390;-84
2023/08/01 10:18:38;;;;;;;14.98;11.20;;;29.50;65.60;;;;;;4957089;29;20402;-82
2023/08/01 10:21:13;;;;;;;15.45;12.98;;;29.50;65.80;;;;;;4942208;29;20031;-84
2023/08/01 10:23:40;;;;;;;16.17;11.30;;;29.50;64.60;;;;;;4942494;29;20098;-84
2023/08/01 10:26:08;;;;;;;16.52;11.48;;;29.50;64.50;;;;;;4941003;29;20110;-84
2023/08/01 10:28:49;;;;;;;12.95;10.30;;;29.50;65.20;;;;;;4925124;29;20051;-82
2023/08/01 10:31:16;;;;;;;11.65;8.43;;;29.80;64.90;;;;;;4941207;29;20124;-81
2023/08/01 10:33:44;;;;;;;10.23;8.57;;;30.00;62.20;;;;;;4942746;29;20023;-84
2023/08/01 10:36:23;;;;;;;12.68;7.72;;;29.90;62.20;;;;;;4958915;29;20107;-82
2023/08/01 10:38:57;;;;;;;12.30;7.93;;;29.80;61.90;;;;;;4943259;29;20498;-82
2023/08/01 10:41:29;;;;;;;10.48;7.80;;;29.80;63.60;;;;;;4937470;29;20059;-82
2023/08/01 10:44:24;;;;;;;15.98;9.07;;;29.90;64.20;;;;;;4941434;29;20027;-82
2023/08/01 10:47:00;;;;;;;8.95;7.15;;;30.00;62.00;;;;;;4936772;29;20405;-82
2023/08/01 10:49:42;;;;;;;13.98;7.65;;;30.00;59.70;;;;;;4943239;29;20064;-83
2023/08/01 10:52:18;;;;;;;8.60;6.32;;;30.10;62.00;;;;;;4939143;29;20028;-82
2023/08/01 10:54:45;;;;;;;9.07;5.82;;;30.20;61.20;;;;;;4947937;29;20082;-84
2023/08/01 10:57:17;;;;;;;8.75;6.90;;;30.50;59.40;;;;;;4957689;29;20085;-82
2023/08/01 10:59:44;;;;;;;5.63;5.03;;;30.40;58.20;;;;;;4942916;29;20063;-82
2023/08/01 11:02:10;;;;;;;7.68;5.95;;;30.70;58.90;;;;;;4941611;29;20098;-84
2023/08/01 11:04:36;;;;;;;9.75;5.80;;;30.90;57.80;;;;;;4938018;29;20063;-80
2023/08/01 11:07:04;;;;;;;7.03;5.20;;;30.90;60.40;;;;;;4922166;29;20507;-81
2023/08/01 11:09:29;;;;;;;8.57;5.13;;;31.20;58.10;;;;;;4922525;29;20284;-81
2023/08/01 11:11:58;;;;;;;6.57;5.00;;;31.40;56.60;;;;;;4943108;29;20364;-80
2023/08/01 11:14:27;;;;;;;6.63;4.78;;;31.20;57.30;;;;;;4943528;29;20118;-81
2023/08/01 11:16:55;;;;;;;10.63;5.00;;;31.30;57.40;;;;;;4943776;29;20492;-80
2023/08/01 11:19:26;;;;;;;10.13;5.30;;;31.40;57.60;;;;;;4943489;29;20034;-81
2023/08/01 11:21:56;;;;;;;5.80;4.90;;;30.70;58.10;;;;;;4943702;29;20031;-80
2023/08/01 11:24:22;;;;;;;9.32;5.40;;;30.70;58.80;;;;;;4946426;29;20065;-81
2023/08/01 11:26:50;;;;;;;65.13;57.70;;;30.70;58.70;;;;;;4944113;29;20406;-81
2023/08/01 11:29:17;;;;;;;33.35;29.75;;;30.70;58.20;;;;;;4941809;29;20036;-81
2023/08/01 11:32:00;;;;;;;9.90;5.55;;;30.70;60.00;;;;;;4940961;29;20035;-83
2023/08/01 11:34:26;;;;;;;6.65;4.80;;;30.90;59.10;;;;;;4939243;29;20039;-81
2023/08/01 11:36:53;;;;;;;9.57;4.90;;;30.70;58.40;;;;;;4941488;29;20020;-79
2023/08/01 11:39:18;;;;;;;;;;;30.80;58.70;;;;;;4943833;29;20115;-80
2023/08/01 11:41:45;;;;;;;6.65;4.55;;;31.00;58.90;;;;;;4941597;29;20346;-79
2023/08/01 11:44:11;;;;;;;;;;;31.30;59.90;;;;;;4938095;29;20443;-78
2023/08/01 11:46:38;;;;;;;9.57;5.28;;;31.30;58.10;;;;;;4935153;29;19953;-78
2023/08/01 11:49:06;;;;;;;7.00;4.93;;;31.60;59.50;;;;;;4941098;29;20028;-79
2023/08/01 11:51:45;;;;;;;10.57;5.78;;;31.60;58.90;;;;;;4938560;29;20034;-78
2023/08/01 11:54:13;;;;;;;9.82;4.47;;;31.50;58.00;;;;;;4940346;29;20096;-78
2023/08/01 11:56:41;;;;;;;9.82;5.57;;;31.40;58.60;;;;;;4940868;29;20031;-78
2023/08/01 11:59:11;;;;;;;7.93;5.38;;;31.40;58.40;;;;;;4939308;29;20028;-79
2023/08/01 12:01:46;;;;;;;7.95;5.20;;;31.40;58.10;;;;;;4940767;29;20032;-78
2023/08/01 12:04:12;;;;;;;8.57;5.50;;;31.50;58.60;;;;;;4936170;29;20124;-79
2023/08/01 12:06:39;;;;;;;8.20;6.03;;;31.70;58.40;;;;;;4928282;29;20487;-79
2023/08/01 12:09:10;;;;;;;9.32;4.88;;;31.60;57.20;;;;;;4939555;29;20023;-79
2023/08/01 12:11:37;;;;;;;6.20;4.57;;;31.50;56.40;;;;;;4940615;29;20053;-79
2023/08/01 12:14:11;;;;;;;7.10;4.55;;;31.50;57.60;;;;;;4996568;23;20070;-79
2023/08/01 12:16:46;;;;;;;8.52;4.50;;;31.60;56.90;;;;;;4966107;29;20091;-79
2023/08/01 12:19:20;;;;;;;8.10;4.10;;;31.70;57.60;;;;;;4958125;28;20027;-79
2023/08/01 12:21:46;;;;;;;8.90;4.40;;;32.00;58.00;;;;;;4956366;28;20035;-79
2023/08/01 12:24:12;;;;;;;9.40;5.45;;;32.10;56.80;;;;;;4954659;29;20023;-80
2023/08/01 12:26:38;;;;;;;8.50;4.88;;;32.10;56.30;;;;;;4964776;29;20031;-79
2023/08/01 12:29:05;;;;;;;7.47;4.82;;;32.00;56.90;;;;;;4956344;29;20023;-80
2023/08/01 12:31:31;;;;;;;;;;;32.00;56.00;;;;;;4965097;28;20039;-80
2023/08/01 12:33:57;;;;;;;7.45;5.00;;;31.70;54.80;;;;;;4959696;29;19911;-80
2023/08/01 12:36:23;;;;;;;8.07;4.63;;;31.60;55.60;;;;;;4949951;29;20035;-80
2023/08/01 12:38:49;;;;;;;6.95;4.35;;;31.70;56.30;;;;;;4963306;29;20035;-80
2023/08/01 12:41:15;;;;;;;10.93;5.38;;;32.00;56.60;;;;;;4956514;29;20035;-80
2023/08/01 12:43:41;;;;;;;9.45;4.53;;;32.10;56.00;;;;;;4979983;28;20054;-80
2023/08/01 12:46:07;;;;;;;12.75;5.60;;;32.00;56.90;;;;;;4964295;29;20034;-80
2023/08/01 12:48:33;;;;;;;13.27;3.97;;;32.20;55.90;;;;;;4965813;28;20063;-80
2023/08/01 12:50:58;;;;;;;7.07;4.72;;;32.20;56.10;;;;;;4965467;29;20224;-79
2023/08/01 12:53:24;;;;;;;9.35;5.07;;;32.30;56.00;;;;;;4964718;29;20066;-79
2023/08/01 12:55:54;;;;;;;8.02;4.55;;;32.00;55.10;;;;;;4964606;28;20031;-80
2023/08/01 12:58:20;;;;;;;10.40;5.13;;;32.30;56.20;;;;;;4961138;29;20031;-81
2023/08/01 13:00:46;;;;;;;7.25;4.82;;;32.60;54.50;;;;;;4962836;29;20039;-80
2023/08/01 13:03:13;;;;;;;8.15;5.25;;;32.40;54.60;;;;;;4965253;29;20118;-82
2023/08/01 13:05:39;;;;;;;;;;;32.40;55.90;;;;;;4964444;28;20035;-81
2023/08/01 13:08:05;;;;;;;8.32;4.15;;;32.60;54.40;;;;;;4965224;28;20008;-81
2023/08/01 13:10:33;;;;;;;9.98;3.85;;;32.30;54.20;;;;;;4954588;28;20110;-81
2023/08/01 13:12:59;;;;;;;7.40;4.03;;;32.70;54.00;;;;;;4958735;29;20077;-82
2023/08/01 13:15:25;;;;;;;4.90;3.58;;;33.10;54.10;;;;;;4952206;28;20031;-82
2023/08/01 13:17:51;;;;;;;7.53;3.63;;;33.40;53.20;;;;;;4973531;28;20090;-82
2023/08/01 13:20:17;;;;;;;7.90;4.00;;;33.50;52.40;;;;;;4959128;28;20027;-82
2023/08/01 13:22:46;;;;;;;5.70;3.92;;;33.40;52.70;;;;;;4958680;28;20050;-83
2023/08/01 13:25:13;;;;;;;10.95;3.67;;;33.70;51.10;;;;;;4959217;28;20382;-82
2023/08/01 13:27:39;;;;;;;5.07;3.33;;;34.30;50.60;;;;;;4956743;28;20037;-86
2023/08/01 13:30:06;;;;;;;8.77;4.28;;;35.50;50.30;;;;;;4960547;28;20126;-85
2023/08/01 13:32:32;;;;;;;6.80;4.30;;;35.40;48.50;;;;;;4961882;29;20083;-82
2023/08/01 13:34:58;;;;;;;8.05;3.65;;;36.40;47.50;;;;;;4957500;29;20035;-82
2023/08/01 13:37:23;;;;;;;8.63;4.60;;;36.70;45.90;;;;;;4959513;29;20028;-86
2023/08/01 13:39:49;;;;;;;5.82;3.30;;;37.00;46.20;;;;;;4951426;29;20027;-85
2023/08/01 13:42:15;;;;;;;5.80;3.55;;;37.80;46.30;;;;;;4976625;28;20082;-85
2023/08/01 13:44:41;;;;;;;7.57;3.47;;;38.30;44.00;;;;;;4958380;28;20027;-84
2023/08/01 13:47:07;;;;;;;15.43;4.63;;;37.70;44.10;;;;;;4977093;28;20106;-83
2023/08/01 13:49:33;;;;;;;8.32;3.90;;;36.70;44.20;;;;;;4961314;29;20082;-85
2023/08/01 13:51:59;;;;;;;;;;;37.70;44.40;;;;;;4977389;28;20486;-84
2023/08/01 13:54:26;;;;;;;11.60;4.73;;;37.70;44.40;;;;;;4961634;28;20017;-84
2023/08/01 13:56:53;;;;;;;5.03;3.97;;;37.80;43.70;;;;;;4962071;29;20082;-85
2023/08/01 13:59:19;;;;;;;7.28;3.83;;;38.40;43.20;;;;;;4964105;29;20031;-86
2023/08/01 14:01:46;;;;;;;6.53;3.90;;;38.80;43.30;;;;;;4979871;28;20152;-82